sensor_id;sensor_type;location;lat;lon;timestamp;temperature;humidity
6260;DHT22;3163;51.516;4.000;2022-12-26T00:01:33;10.60;99.90
6260;DHT22;3163;51.516;4.000;2022-12-26T00:03:59;10.50;99.90
6260;DHT22;3163;51.516;4.000;2022-12-26T00:06:26;10.60;99.90
6260;DHT22;3163;51.516;4.000;2022-12-26T00:08:53;10.60;99.90
6260;DHT22;3163;51.516;4.000;2022-12-26T00:11:20;10.60;99.90
6260;DHT22;3163;51.516;4.000;2022-12-26T00:13:46;10.70;99.90
6260;DHT22;3163;51.516;4.000;2022-12-26T00:16:14;10.70;99.90
6260;DHT22;3163;51.516;4.000;2022-12-26T00:18:41;10.60;99.90
6260;DHT22;3163;51.516;4.000;2022-12-26T00:21:08;10.60;99.90
6260;DHT22;3163;51.516;4.000;2022-12-26T00:23:34;10.60;99.90
6260;DHT22;3163;51.516;4.000;2022-12-26T00:26:11;10.60;99.90
6260;DHT22;3163;51.516;4.000;2022-12-26T00:28:38;10.60;99.90
6260;DHT22;3163;51.516;4.000;2022-12-26T00:31:09;10.60;99.90
6260;DHT22;3163;51.516;4.000;2022-12-26T00:33:35;10.60;99.90
6260;DHT22;3163;51.516;4.000;2022-12-26T00:36:03;10.50;99.90
6260;DHT22;3163;51.516;4.000;2022-12-26T00:38:30;10.60;99.90
6260;DHT22;3163;51.516;4.000;2022-12-26T00:40:56;10.60;99.90
6260;DHT22;3163;51.516;4.000;2022-12-26T00:43:21;10.50;99.90
6260;DHT22;3163;51.516;4.000;2022-12-26T00:45:47;10.50;99.90
6260;DHT22;3163;51.516;4.000;2022-12-26T00:48:13;10.50;99.90
6260;DHT22;3163;51.516;4.000;2022-12-26T00:50:39;10.50;99.90
6260;DHT22;3163;51.516;4.000;2022-12-26T00:53:05;10.50;99.90
6260;DHT22;3163;51.516;4.000;2022-12-26T00:55:30;10.60;99.90
6260;DHT22;3163;51.516;4.000;2022-12-26T00:57:56;10.60;99.90
6260;DHT22;3163;51.516;4.000;2022-12-26T01:00:22;10.60;99.90
6260;DHT22;3163;51.516;4.000;2022-12-26T01:02:47;10.60;99.90
6260;DHT22;3163;51.516;4.000;2022-12-26T01:05:13;10.70;99.90
6260;DHT22;3163;51.516;4.000;2022-12-26T01:07:39;10.60;99.90
6260;DHT22;3163;51.516;4.000;2022-12-26T01:10:07;10.60;99.90
6260;DHT22;3163;51.516;4.000;2022-12-26T01:12:33;10.60;99.90
6260;DHT22;3163;51.516;4.000;2022-12-26T01:14:58;10.60;99.90
6260;DHT22;3163;51.516;4.000;2022-12-26T01:17:26;10.60;99.90
6260;DHT22;3163;51.516;4.000;2022-12-26T01:19:52;10.60;99.90
6260;DHT22;3163;51.516;4.000;2022-12-26T01:22:18;10.60;99.90
6260;DHT22;3163;51.516;4.000;2022-12-26T01:24:43;10.50;99.90
6260;DHT22;3163;51.516;4.000;2022-12-26T01:27:09;10.60;99.90
6260;DHT22;3163;51.516;4.000;2022-12-26T01:29:35;10.50;99.90
6260;DHT22;3163;51.516;4.000;2022-12-26T01:32:00;10.50;99.90
6260;DHT22;3163;51.516;4.000;2022-12-26T01:34:26;10.60;99.90
6260;DHT22;3163;51.516;4.000;2022-12-26T01:36:52;10.50;99.90
6260;DHT22;3163;51.516;4.000;2022-12-26T01:39:18;10.50;99.90
6260;DHT22;3163;51.516;4.000;2022-12-26T01:41:45;10.50;99.90
6260;DHT22;3163;51.516;4.000;2022-12-26T01:47:14;10.50;99.90
6260;DHT22;3163;51.516;4.000;2022-12-26T01:49:45;10.60;99.90
6260;DHT22;3163;51.516;4.000;2022-12-26T01:52:32;10.60;99.90
6260;DHT22;3163;51.516;4.000;2022-12-26T01:55:00;10.60;99.90
6260;DHT22;3163;51.516;4.000;2022-12-26T01:57:31;10.60;99.90
6260;DHT22;3163;51.516;4.000;2022-12-26T01:59:59;10.50;99.90
6260;DHT22;3163;51.516;4.000;2022-12-26T02:02:27;10.50;99.90
6260;DHT22;3163;51.516;4.000;2022-12-26T02:04:54;10.50;99.90
6260;DHT22;3163;51.516;4.000;2022-12-26T02:07:42;10.50;99.90
6260;DHT22;3163;51.516;4.000;2022-12-26T02:10:13;10.50;99.90
6260;DHT22;3163;51.516;4.000;2022-12-26T02:12:39;10.50;99.90
6260;DHT22;3163;51.516;4.000;2022-12-26T02:15:14;10.50;99.90
6260;DHT22;3163;51.516;4.000;2022-12-26T02:17:40;10.50;99.90
6260;DHT22;3163;51.516;4.000;2022-12-26T02:36:43;10.50;99.90
6260;DHT22;3163;51.516;4.000;2022-12-26T02:44:54;10.50;99.90
6260;DHT22;3163;51.516;4.000;2022-12-26T02:50:31;10.50;99.90
6260;DHT22;3163;51.516;4.000;2022-12-26T02:56:34;10.50;99.90
6260;DHT22;3163;51.516;4.000;2022-12-26T02:59:33;10.50;99.90
6260;DHT22;3163;51.516;4.000;2022-12-26T03:02:36;10.50;99.90
6260;DHT22;3163;51.516;4.000;2022-12-26T03:05:35;10.50;99.90
6260;DHT22;3163;51.516;4.000;2022-12-26T03:08:45;10.50;99.90
6260;DHT22;3163;51.516;4.000;2022-12-26T03:11:38;10.50;99.90
6260;DHT22;3163;51.516;4.000;2022-12-26T03:14:32;10.40;99.90
6260;DHT22;3163;51.516;4.000;2022-12-26T03:17:07;10.50;99.90
6260;DHT22;3163;51.516;4.000;2022-12-26T03:19:49;10.40;99.90
6260;DHT22;3163;51.516;4.000;2022-12-26T03:22:55;10.40;99.90
6260;DHT22;3163;51.516;4.000;2022-12-26T03:25:45;10.50;99.90
6260;DHT22;3163;51.516;4.000;2022-12-26T03:28:31;10.50;99.90
6260;DHT22;3163;51.516;4.000;2022-12-26T03:30:59;10.50;99.90
6260;DHT22;3163;51.516;4.000;2022-12-26T03:33:35;10.50;99.90
6260;DHT22;3163;51.516;4.000;2022-12-26T03:45:35;10.50;99.90
6260;DHT22;3163;51.516;4.000;2022-12-26T03:51:10;10.40;99.90
6260;DHT22;3163;51.516;4.000;2022-12-26T03:54:07;10.40;99.90
6260;DHT22;3163;51.516;4.000;2022-12-26T03:57:15;10.40;99.90
6260;DHT22;3163;51.516;4.000;2022-12-26T04:00:05;10.40;99.90
6260;DHT22;3163;51.516;4.000;2022-12-26T04:02:54;10.40;99.90
6260;DHT22;3163;51.516;4.000;2022-12-26T04:05:44;10.40;99.90
6260;DHT22;3163;51.516;4.000;2022-12-26T04:08:52;10.40;99.90
6260;DHT22;3163;51.516;4.000;2022-12-26T04:11:39;10.40;99.90
6260;DHT22;3163;51.516;4.000;2022-12-26T04:20:30;10.40;99.90
6260;DHT22;3163;51.516;4.000;2022-12-26T04:23:04;10.40;99.90
6260;DHT22;3163;51.516;4.000;2022-12-26T04:25:58;10.50;99.90
6260;DHT22;3163;51.516;4.000;2022-12-26T04:28:45;10.40;99.90
6260;DHT22;3163;51.516;4.000;2022-12-26T04:31:33;10.40;99.90
6260;DHT22;3163;51.516;4.000;2022-12-26T04:34:26;10.40;99.90
6260;DHT22;3163;51.516;4.000;2022-12-26T04:37:24;10.40;99.90
6260;DHT22;3163;51.516;4.000;2022-12-26T04:40:15;10.40;99.90
6260;DHT22;3163;51.516;4.000;2022-12-26T04:43:02;10.40;99.90
6260;DHT22;3163;51.516;4.000;2022-12-26T04:45:47;10.40;99.90
6260;DHT22;3163;51.516;4.000;2022-12-26T04:48:13;10.40;99.90
6260;DHT22;3163;51.516;4.000;2022-12-26T04:50:57;10.40;99.90
6260;DHT22;3163;51.516;4.000;2022-12-26T04:53:23;10.40;99.90
6260;DHT22;3163;51.516;4.000;2022-12-26T04:55:48;10.40;99.90
6260;DHT22;3163;51.516;4.000;2022-12-26T04:58:14;10.40;99.90
6260;DHT22;3163;51.516;4.000;2022-12-26T05:00:39;10.40;99.90
6260;DHT22;3163;51.516;4.000;2022-12-26T05:03:05;10.40;99.90
6260;DHT22;3163;51.516;4.000;2022-12-26T05:05:50;10.40;99.90
6260;DHT22;3163;51.516;4.000;2022-12-26T05:08:44;10.40;99.90
6260;DHT22;3163;51.516;4.000;2022-12-26T05:11:30;10.50;99.90
6260;DHT22;3163;51.516;4.000;2022-12-26T05:13:57;10.40;99.90
6260;DHT22;3163;51.516;4.000;2022-12-26T05:16:24;10.40;99.90
6260;DHT22;3163;51.516;4.000;2022-12-26T05:19:14;10.40;99.90
6260;DHT22;3163;51.516;4.000;2022-12-26T05:21:59;10.40;99.90
6260;DHT22;3163;51.516;4.000;2022-12-26T05:24:45;10.40;99.90
6260;DHT22;3163;51.516;4.000;2022-12-26T05:27:38;10.40;99.90
6260;DHT22;3163;51.516;4.000;2022-12-26T05:30:23;10.40;99.90
6260;DHT22;3163;51.516;4.000;2022-12-26T05:32:49;10.40;99.90
6260;DHT22;3163;51.516;4.000;2022-12-26T05:35:33;10.40;99.90
6260;DHT22;3163;51.516;4.000;2022-12-26T05:37:59;10.40;99.90
6260;DHT22;3163;51.516;4.000;2022-12-26T05:40:25;10.30;99.90
6260;DHT22;3163;51.516;4.000;2022-12-26T05:42:51;10.30;99.90
6260;DHT22;3163;51.516;4.000;2022-12-26T05:45:16;10.30;99.90
6260;DHT22;3163;51.516;4.000;2022-12-26T05:47:42;10.40;99.90
6260;DHT22;3163;51.516;4.000;2022-12-26T05:50:08;10.40;99.90
6260;DHT22;3163;51.516;4.000;2022-12-26T05:52:33;10.40;99.90
6260;DHT22;3163;51.516;4.000;2022-12-26T05:54:59;10.40;99.90
6260;DHT22;3163;51.516;4.000;2022-12-26T05:57:24;10.50;99.90
6260;DHT22;3163;51.516;4.000;2022-12-26T05:59:50;10.50;99.90
6260;DHT22;3163;51.516;4.000;2022-12-26T06:02:16;10.40;99.90
6260;DHT22;3163;51.516;4.000;2022-12-26T06:04:41;10.40;99.90
6260;DHT22;3163;51.516;4.000;2022-12-26T06:07:07;10.40;99.90
6260;DHT22;3163;51.516;4.000;2022-12-26T06:09:32;10.40;99.90
6260;DHT22;3163;51.516;4.000;2022-12-26T06:11:58;10.40;99.90
6260;DHT22;3163;51.516;4.000;2022-12-26T06:14:24;10.40;99.90
6260;DHT22;3163;51.516;4.000;2022-12-26T06:16:49;10.40;99.90
6260;DHT22;3163;51.516;4.000;2022-12-26T06:19:15;10.40;99.90
6260;DHT22;3163;51.516;4.000;2022-12-26T06:21:41;10.40;99.90
6260;DHT22;3163;51.516;4.000;2022-12-26T06:24:06;10.40;99.90
6260;DHT22;3163;51.516;4.000;2022-12-26T06:26:32;10.40;99.90
6260;DHT22;3163;51.516;4.000;2022-12-26T06:28:58;10.40;99.90
6260;DHT22;3163;51.516;4.000;2022-12-26T06:31:24;10.40;99.90
6260;DHT22;3163;51.516;4.000;2022-12-26T06:33:53;10.40;99.90
6260;DHT22;3163;51.516;4.000;2022-12-26T06:36:21;10.40;99.90
6260;DHT22;3163;51.516;4.000;2022-12-26T06:38:47;10.30;99.90
6260;DHT22;3163;51.516;4.000;2022-12-26T06:41:15;10.30;99.90
6260;DHT22;3163;51.516;4.000;2022-12-26T06:43:41;10.30;99.90
6260;DHT22;3163;51.516;4.000;2022-12-26T06:46:14;10.40;99.90
6260;DHT22;3163;51.516;4.000;2022-12-26T06:48:40;10.40;99.90
6260;DHT22;3163;51.516;4.000;2022-12-26T06:51:11;10.50;99.90
6260;DHT22;3163;51.516;4.000;2022-12-26T06:53:37;10.40;99.90
6260;DHT22;3163;51.516;4.000;2022-12-26T06:56:11;10.40;99.90
6260;DHT22;3163;51.516;4.000;2022-12-26T06:58:37;10.40;99.90
6260;DHT22;3163;51.516;4.000;2022-12-26T07:01:08;10.40;99.90
6260;DHT22;3163;51.516;4.000;2022-12-26T07:03:34;10.40;99.90
6260;DHT22;3163;51.516;4.000;2022-12-26T07:06:24;10.40;99.90
6260;DHT22;3163;51.516;4.000;2022-12-26T07:08:52;10.40;99.90
6260;DHT22;3163;51.516;4.000;2022-12-26T07:11:21;10.40;99.90
6260;DHT22;3163;51.516;4.000;2022-12-26T07:13:47;10.40;99.90
6260;DHT22;3163;51.516;4.000;2022-12-26T07:16:12;10.40;99.90
6260;DHT22;3163;51.516;4.000;2022-12-26T07:18:38;10.40;99.90
6260;DHT22;3163;51.516;4.000;2022-12-26T07:21:12;10.40;99.90
6260;DHT22;3163;51.516;4.000;2022-12-26T07:23:38;10.40;99.90
6260;DHT22;3163;51.516;4.000;2022-12-26T07:26:04;10.40;99.90
6260;DHT22;3163;51.516;4.000;2022-12-26T07:28:30;10.30;99.90
6260;DHT22;3163;51.516;4.000;2022-12-26T07:30:56;10.30;99.90
6260;DHT22;3163;51.516;4.000;2022-12-26T07:33:23;10.40;99.90
6260;DHT22;3163;51.516;4.000;2022-12-26T07:35:49;10.30;99.90
6260;DHT22;3163;51.516;4.000;2022-12-26T07:38:14;10.40;99.90
6260;DHT22;3163;51.516;4.000;2022-12-26T07:40:40;10.40;99.90
6260;DHT22;3163;51.516;4.000;2022-12-26T07:43:05;10.40;99.90
6260;DHT22;3163;51.516;4.000;2022-12-26T07:45:31;10.40;99.90
6260;DHT22;3163;51.516;4.000;2022-12-26T07:47:57;10.50;99.90
6260;DHT22;3163;51.516;4.000;2022-12-26T07:50:24;10.40;99.90
6260;DHT22;3163;51.516;4.000;2022-12-26T07:52:50;10.40;99.90
6260;DHT22;3163;51.516;4.000;2022-12-26T07:55:16;10.40;99.90
6260;DHT22;3163;51.516;4.000;2022-12-26T07:57:42;10.40;99.90
6260;DHT22;3163;51.516;4.000;2022-12-26T08:00:08;10.40;99.90
6260;DHT22;3163;51.516;4.000;2022-12-26T08:02:34;10.40;99.90
6260;DHT22;3163;51.516;4.000;2022-12-26T08:05:00;10.40;99.90
6260;DHT22;3163;51.516;4.000;2022-12-26T08:07:25;10.40;99.90
6260;DHT22;3163;51.516;4.000;2022-12-26T08:09:51;10.40;99.90
6260;DHT22;3163;51.516;4.000;2022-12-26T08:12:16;10.40;99.90
6260;DHT22;3163;51.516;4.000;2022-12-26T08:14:46;10.40;99.90
6260;DHT22;3163;51.516;4.000;2022-12-26T08:17:12;10.40;99.90
6260;DHT22;3163;51.516;4.000;2022-12-26T08:19:38;10.50;99.90
6260;DHT22;3163;51.516;4.000;2022-12-26T08:22:03;10.50;99.90
6260;DHT22;3163;51.516;4.000;2022-12-26T08:24:29;10.50;99.90
6260;DHT22;3163;51.516;4.000;2022-12-26T08:26:54;10.50;99.90
6260;DHT22;3163;51.516;4.000;2022-12-26T08:29:20;10.50;99.90
6260;DHT22;3163;51.516;4.000;2022-12-26T08:31:45;10.60;99.90
6260;DHT22;3163;51.516;4.000;2022-12-26T08:34:11;10.70;99.90
6260;DHT22;3163;51.516;4.000;2022-12-26T08:36:38;10.70;99.90
6260;DHT22;3163;51.516;4.000;2022-12-26T08:39:04;10.80;99.90
6260;DHT22;3163;51.516;4.000;2022-12-26T08:41:30;10.70;99.90
6260;DHT22;3163;51.516;4.000;2022-12-26T08:43:55;10.80;99.90
6260;DHT22;3163;51.516;4.000;2022-12-26T08:46:22;10.70;99.90
6260;DHT22;3163;51.516;4.000;2022-12-26T08:48:48;10.80;99.90
6260;DHT22;3163;51.516;4.000;2022-12-26T08:51:20;10.80;99.90
6260;DHT22;3163;51.516;4.000;2022-12-26T08:53:46;10.90;99.90
6260;DHT22;3163;51.516;4.000;2022-12-26T08:56:16;11.00;99.90
6260;DHT22;3163;51.516;4.000;2022-12-26T08:58:42;11.00;99.90
6260;DHT22;3163;51.516;4.000;2022-12-26T09:01:21;11.00;99.90
6260;DHT22;3163;51.516;4.000;2022-12-26T09:03:50;11.00;99.90
6260;DHT22;3163;51.516;4.000;2022-12-26T09:06:16;11.10;99.90
6260;DHT22;3163;51.516;4.000;2022-12-26T09:08:42;11.10;99.90
6260;DHT22;3163;51.516;4.000;2022-12-26T09:11:16;11.10;99.90
6260;DHT22;3163;51.516;4.000;2022-12-26T09:13:43;11.10;99.90
6260;DHT22;3163;51.516;4.000;2022-12-26T09:16:12;11.10;99.90
6260;DHT22;3163;51.516;4.000;2022-12-26T09:18:38;11.10;99.90
6260;DHT22;3163;51.516;4.000;2022-12-26T09:21:09;11.10;99.90
6260;DHT22;3163;51.516;4.000;2022-12-26T09:23:36;11.10;99.90
6260;DHT22;3163;51.516;4.000;2022-12-26T09:26:04;11.10;99.90
6260;DHT22;3163;51.516;4.000;2022-12-26T09:28:31;11.20;99.90
6260;DHT22;3163;51.516;4.000;2022-12-26T09:31:01;11.20;99.90
6260;DHT22;3163;51.516;4.000;2022-12-26T09:33:29;11.20;99.90
6260;DHT22;3163;51.516;4.000;2022-12-26T09:35:54;11.20;99.90
6260;DHT22;3163;51.516;4.000;2022-12-26T09:38:20;11.30;99.90
6260;DHT22;3163;51.516;4.000;2022-12-26T09:41:26;11.20;99.90
6260;DHT22;3163;51.516;4.000;2022-12-26T09:44:00;11.20;99.90
6260;DHT22;3163;51.516;4.000;2022-12-26T09:46:35;11.30;99.90
6260;DHT22;3163;51.516;4.000;2022-12-26T09:49:17;11.40;99.90
6260;DHT22;3163;51.516;4.000;2022-12-26T09:51:47;11.40;99.90
6260;DHT22;3163;51.516;4.000;2022-12-26T09:54:39;11.40;99.90
6260;DHT22;3163;51.516;4.000;2022-12-26T09:57:10;11.40;99.90
6260;DHT22;3163;51.516;4.000;2022-12-26T09:59:47;11.30;99.90
6260;DHT22;3163;51.516;4.000;2022-12-26T10:02:19;11.40;99.90
6260;DHT22;3163;51.516;4.000;2022-12-26T10:04:45;11.30;99.90
6260;DHT22;3163;51.516;4.000;2022-12-26T10:15:47;11.30;99.90
6260;DHT22;3163;51.516;4.000;2022-12-26T10:24:03;11.40;99.90
6260;DHT22;3163;51.516;4.000;2022-12-26T10:26:35;11.40;99.90
6260;DHT22;3163;51.516;4.000;2022-12-26T10:31:58;11.40;99.90
6260;DHT22;3163;51.516;4.000;2022-12-26T10:42:18;11.40;99.90
6260;DHT22;3163;51.516;4.000;2022-12-26T10:44:45;11.40;99.90
6260;DHT22;3163;51.516;4.000;2022-12-26T10:47:54;11.40;99.90
6260;DHT22;3163;51.516;4.000;2022-12-26T10:50:18;11.40;99.90
6260;DHT22;3163;51.516;4.000;2022-12-26T10:52:45;11.40;99.90
6260;DHT22;3163;51.516;4.000;2022-12-26T10:55:16;11.40;99.90
6260;DHT22;3163;51.516;4.000;2022-12-26T10:57:43;11.40;99.90
6260;DHT22;3163;51.516;4.000;2022-12-26T11:00:19;11.40;99.90
6260;DHT22;3163;51.516;4.000;2022-12-26T11:02:45;11.50;99.90
6260;DHT22;3163;51.516;4.000;2022-12-26T11:05:25;11.50;99.90
6260;DHT22;3163;51.516;4.000;2022-12-26T11:07:54;11.50;99.90
6260;DHT22;3163;51.516;4.000;2022-12-26T11:10:23;11.50;99.90
6260;DHT22;3163;51.516;4.000;2022-12-26T11:12:52;11.50;99.90
6260;DHT22;3163;51.516;4.000;2022-12-26T11:15:37;11.50;99.90
6260;DHT22;3163;51.516;4.000;2022-12-26T11:18:30;11.50;99.90
6260;DHT22;3163;51.516;4.000;2022-12-26T11:23:41;11.50;99.90
6260;DHT22;3163;51.516;4.000;2022-12-26T11:28:44;11.60;99.90
6260;DHT22;3163;51.516;4.000;2022-12-26T11:31:23;11.60;99.90
6260;DHT22;3163;51.516;4.000;2022-12-26T11:33:51;11.60;99.90
6260;DHT22;3163;51.516;4.000;2022-12-26T11:36:22;11.60;99.90
6260;DHT22;3163;51.516;4.000;2022-12-26T11:39:02;11.60;99.90
6260;DHT22;3163;51.516;4.000;2022-12-26T11:41:36;11.60;99.90
6260;DHT22;3163;51.516;4.000;2022-12-26T11:46:54;11.60;99.90
6260;DHT22;3163;51.516;4.000;2022-12-26T11:52:40;11.60;99.90
6260;DHT22;3163;51.516;4.000;2022-12-26T12:00:43;11.70;99.90
6260;DHT22;3163;51.516;4.000;2022-12-26T12:06:05;11.60;99.90
6260;DHT22;3163;51.516;4.000;2022-12-26T12:16:59;11.60;99.90
6260;DHT22;3163;51.516;4.000;2022-12-26T12:19:36;11.70;99.90
6260;DHT22;3163;51.516;4.000;2022-12-26T12:27:36;11.80;99.90
6260;DHT22;3163;51.516;4.000;2022-12-26T12:38:32;11.80;99.90
6260;DHT22;3163;51.516;4.000;2022-12-26T12:41:18;11.90;99.90
6260;DHT22;3163;51.516;4.000;2022-12-26T12:44:09;11.80;99.90
6260;DHT22;3163;51.516;4.000;2022-12-26T12:46:56;11.80;99.90
6260;DHT22;3163;51.516;4.000;2022-12-26T12:52:02;11.80;99.90
6260;DHT22;3163;51.516;4.000;2022-12-26T12:57:25;11.90;99.90
6260;DHT22;3163;51.516;4.000;2022-12-26T13:00:14;11.80;99.90
6260;DHT22;3163;51.516;4.000;2022-12-26T13:02:54;11.70;99.90
6260;DHT22;3163;51.516;4.000;2022-12-26T13:05:45;11.80;99.90
6260;DHT22;3163;51.516;4.000;2022-12-26T13:08:28;11.80;99.90
6260;DHT22;3163;51.516;4.000;2022-12-26T13:11:03;11.90;99.90
6260;DHT22;3163;51.516;4.000;2022-12-26T13:13:37;12.00;99.90
6260;DHT22;3163;51.516;4.000;2022-12-26T13:16:14;12.10;99.90
6260;DHT22;3163;51.516;4.000;2022-12-26T13:18:58;12.10;99.90
6260;DHT22;3163;51.516;4.000;2022-12-26T13:21:25;12.10;99.90
6260;DHT22;3163;51.516;4.000;2022-12-26T13:26:45;11.90;99.90
6260;DHT22;3163;51.516;4.000;2022-12-26T13:29:31;12.10;99.90
6260;DHT22;3163;51.516;4.000;2022-12-26T13:31:58;12.20;99.90
6260;DHT22;3163;51.516;4.000;2022-12-26T13:34:25;12.20;99.90
6260;DHT22;3163;51.516;4.000;2022-12-26T13:36:55;12.20;99.90
6260;DHT22;3163;51.516;4.000;2022-12-26T13:39:31;12.30;99.90
6260;DHT22;3163;51.516;4.000;2022-12-26T13:42:12;12.20;99.90
6260;DHT22;3163;51.516;4.000;2022-12-26T13:50:55;12.10;99.90
6260;DHT22;3163;51.516;4.000;2022-12-26T13:55:54;12.00;99.90
6260;DHT22;3163;51.516;4.000;2022-12-26T13:58:41;11.90;99.90
6260;DHT22;3163;51.516;4.000;2022-12-26T14:01:29;11.90;99.90
6260;DHT22;3163;51.516;4.000;2022-12-26T14:07:20;11.90;99.90
6260;DHT22;3163;51.516;4.000;2022-12-26T14:37:11;11.80;99.90
6260;DHT22;3163;51.516;4.000;2022-12-26T14:43:01;11.70;99.90
6260;DHT22;3163;51.516;4.000;2022-12-26T14:50:55;11.60;99.90
6260;DHT22;3163;51.516;4.000;2022-12-26T14:53:40;11.50;99.90
6260;DHT22;3163;51.516;4.000;2022-12-26T15:07:18;11.50;99.90
6260;DHT22;3163;51.516;4.000;2022-12-26T15:10:18;11.50;99.90
6260;DHT22;3163;51.516;4.000;2022-12-26T15:26:34;11.40;99.90
6260;DHT22;3163;51.516;4.000;2022-12-26T15:35:19;11.30;99.90
6260;DHT22;3163;51.516;4.000;2022-12-26T15:38:38;11.30;99.90
6260;DHT22;3163;51.516;4.000;2022-12-26T15:40:52;11.30;99.90
6260;DHT22;3163;51.516;4.000;2022-12-26T15:51:42;11.00;99.90
6260;DHT22;3163;51.516;4.000;2022-12-26T15:57:18;11.10;99.90
6260;DHT22;3163;51.516;4.000;2022-12-26T16:10:45;11.00;99.90
6260;DHT22;3163;51.516;4.000;2022-12-26T16:15:48;11.10;99.90
6260;DHT22;3163;51.516;4.000;2022-12-26T16:18:16;11.00;99.90
6260;DHT22;3163;51.516;4.000;2022-12-26T16:20:44;11.00;99.90
6260;DHT22;3163;51.516;4.000;2022-12-26T16:23:30;11.00;99.90
6260;DHT22;3163;51.516;4.000;2022-12-26T16:25:57;11.00;99.90
6260;DHT22;3163;51.516;4.000;2022-12-26T16:28:39;11.00;99.90
6260;DHT22;3163;51.516;4.000;2022-12-26T16:31:06;10.90;99.90
6260;DHT22;3163;51.516;4.000;2022-12-26T16:33:43;10.90;99.90
6260;DHT22;3163;51.516;4.000;2022-12-26T16:36:16;10.80;99.90
6260;DHT22;3163;51.516;4.000;2022-12-26T16:38:43;10.80;99.90
6260;DHT22;3163;51.516;4.000;2022-12-26T16:41:28;10.70;99.90
6260;DHT22;3163;51.516;4.000;2022-12-26T16:43:55;10.60;99.90
6260;DHT22;3163;51.516;4.000;2022-12-26T16:46:25;10.50;99.90
6260;DHT22;3163;51.516;4.000;2022-12-26T16:48:59;10.40;99.90
6260;DHT22;3163;51.516;4.000;2022-12-26T16:51:45;10.30;99.90
6260;DHT22;3163;51.516;4.000;2022-12-26T16:56:52;10.30;99.90
6260;DHT22;3163;51.516;4.000;2022-12-26T16:59:23;10.30;99.90
6260;DHT22;3163;51.516;4.000;2022-12-26T17:01:55;10.30;99.90
6260;DHT22;3163;51.516;4.000;2022-12-26T17:04:27;10.20;99.90
6260;DHT22;3163;51.516;4.000;2022-12-26T17:07:00;10.20;99.90
6260;DHT22;3163;51.516;4.000;2022-12-26T17:09:29;10.10;99.90
6260;DHT22;3163;51.516;4.000;2022-12-26T17:11:59;10.10;99.90
6260;DHT22;3163;51.516;4.000;2022-12-26T17:14:34;10.10;99.90
6260;DHT22;3163;51.516;4.000;2022-12-26T17:19:47;10.00;99.90
6260;DHT22;3163;51.516;4.000;2022-12-26T17:22:34;9.90;99.90
6260;DHT22;3163;51.516;4.000;2022-12-26T17:30:36;9.90;99.90
6260;DHT22;3163;51.516;4.000;2022-12-26T17:33:07;9.90;99.90
6260;DHT22;3163;51.516;4.000;2022-12-26T17:35:35;9.90;99.90
6260;DHT22;3163;51.516;4.000;2022-12-26T17:38:05;10.00;99.90
6260;DHT22;3163;51.516;4.000;2022-12-26T17:40:36;10.00;99.90
6260;DHT22;3163;51.516;4.000;2022-12-26T17:45:39;9.90;99.90
6260;DHT22;3163;51.516;4.000;2022-12-26T17:48:05;9.90;99.90
6260;DHT22;3163;51.516;4.000;2022-12-26T17:50:33;9.90;99.90
6260;DHT22;3163;51.516;4.000;2022-12-26T17:55:45;9.90;99.90
6260;DHT22;3163;51.516;4.000;2022-12-26T17:58:14;9.80;99.90
6260;DHT22;3163;51.516;4.000;2022-12-26T18:00:41;9.90;99.90
6260;DHT22;3163;51.516;4.000;2022-12-26T18:03:07;9.90;99.90
6260;DHT22;3163;51.516;4.000;2022-12-26T18:05:33;9.90;99.90
6260;DHT22;3163;51.516;4.000;2022-12-26T18:08:00;9.90;99.90
6260;DHT22;3163;51.516;4.000;2022-12-26T18:10:28;9.80;99.90
6260;DHT22;3163;51.516;4.000;2022-12-26T18:12:54;9.80;99.90
6260;DHT22;3163;51.516;4.000;2022-12-26T18:15:22;9.80;99.90
6260;DHT22;3163;51.516;4.000;2022-12-26T18:17:49;9.90;99.90
6260;DHT22;3163;51.516;4.000;2022-12-26T18:20:21;9.80;99.90
6260;DHT22;3163;51.516;4.000;2022-12-26T18:22:47;9.80;99.90
6260;DHT22;3163;51.516;4.000;2022-12-26T18:25:18;9.80;99.90
6260;DHT22;3163;51.516;4.000;2022-12-26T18:27:44;9.90;99.90
6260;DHT22;3163;51.516;4.000;2022-12-26T18:30:18;9.90;99.90
6260;DHT22;3163;51.516;4.000;2022-12-26T18:32:45;9.90;99.90
6260;DHT22;3163;51.516;4.000;2022-12-26T18:35:11;9.90;99.90
6260;DHT22;3163;51.516;4.000;2022-12-26T18:37:38;9.80;99.90
6260;DHT22;3163;51.516;4.000;2022-12-26T18:40:05;9.90;99.90
6260;DHT22;3163;51.516;4.000;2022-12-26T18:42:31;9.80;99.90
6260;DHT22;3163;51.516;4.000;2022-12-26T18:44:57;9.80;99.90
6260;DHT22;3163;51.516;4.000;2022-12-26T18:47:22;9.80;99.90
6260;DHT22;3163;51.516;4.000;2022-12-26T18:49:48;9.80;99.90
6260;DHT22;3163;51.516;4.000;2022-12-26T18:52:15;9.70;99.90
6260;DHT22;3163;51.516;4.000;2022-12-26T18:54:41;9.70;99.90
6260;DHT22;3163;51.516;4.000;2022-12-26T18:57:11;9.70;99.90
6260;DHT22;3163;51.516;4.000;2022-12-26T18:59:39;9.70;99.90
6260;DHT22;3163;51.516;4.000;2022-12-26T19:02:08;9.70;99.90
6260;DHT22;3163;51.516;4.000;2022-12-26T19:04:37;9.70;99.90
6260;DHT22;3163;51.516;4.000;2022-12-26T19:07:03;9.70;99.90
6260;DHT22;3163;51.516;4.000;2022-12-26T19:09:28;9.70;99.90
6260;DHT22;3163;51.516;4.000;2022-12-26T19:11:54;9.60;99.90
6260;DHT22;3163;51.516;4.000;2022-12-26T19:14:20;9.70;99.90
6260;DHT22;3163;51.516;4.000;2022-12-26T19:16:46;9.70;99.90
6260;DHT22;3163;51.516;4.000;2022-12-26T19:19:12;9.70;99.90
6260;DHT22;3163;51.516;4.000;2022-12-26T19:21:37;9.70;99.90
6260;DHT22;3163;51.516;4.000;2022-12-26T19:24:03;9.70;99.90
6260;DHT22;3163;51.516;4.000;2022-12-26T19:26:29;9.70;99.90
6260;DHT22;3163;51.516;4.000;2022-12-26T19:28:55;9.70;99.90
6260;DHT22;3163;51.516;4.000;2022-12-26T19:31:22;9.60;99.90
6260;DHT22;3163;51.516;4.000;2022-12-26T19:33:47;9.60;99.90
6260;DHT22;3163;51.516;4.000;2022-12-26T19:36:13;9.60;99.90
6260;DHT22;3163;51.516;4.000;2022-12-26T19:38:39;9.60;99.90
6260;DHT22;3163;51.516;4.000;2022-12-26T19:41:14;9.60;99.90
6260;DHT22;3163;51.516;4.000;2022-12-26T19:43:40;9.60;99.90
6260;DHT22;3163;51.516;4.000;2022-12-26T19:46:08;9.60;99.90
6260;DHT22;3163;51.516;4.000;2022-12-26T19:48:36;9.60;99.90
6260;DHT22;3163;51.516;4.000;2022-12-26T19:51:04;9.60;99.90
6260;DHT22;3163;51.516;4.000;2022-12-26T19:53:30;9.60;99.90
6260;DHT22;3163;51.516;4.000;2022-12-26T19:55:56;9.60;99.90
6260;DHT22;3163;51.516;4.000;2022-12-26T19:58:22;9.50;99.90
6260;DHT22;3163;51.516;4.000;2022-12-26T20:00:47;9.50;99.90
6260;DHT22;3163;51.516;4.000;2022-12-26T20:03:14;9.50;99.90
6260;DHT22;3163;51.516;4.000;2022-12-26T20:05:40;9.50;99.90
6260;DHT22;3163;51.516;4.000;2022-12-26T20:08:09;9.40;99.90
6260;DHT22;3163;51.516;4.000;2022-12-26T20:10:35;9.40;99.90
6260;DHT22;3163;51.516;4.000;2022-12-26T20:13:01;9.40;99.90
6260;DHT22;3163;51.516;4.000;2022-12-26T20:15:27;9.40;99.90
6260;DHT22;3163;51.516;4.000;2022-12-26T20:17:52;9.50;99.90
6260;DHT22;3163;51.516;4.000;2022-12-26T20:20:19;9.50;99.90
6260;DHT22;3163;51.516;4.000;2022-12-26T20:22:44;9.50;99.90
6260;DHT22;3163;51.516;4.000;2022-12-26T20:25:10;9.50;99.90
6260;DHT22;3163;51.516;4.000;2022-12-26T20:27:36;9.40;99.90
6260;DHT22;3163;51.516;4.000;2022-12-26T20:30:03;9.40;99.90
6260;DHT22;3163;51.516;4.000;2022-12-26T20:32:29;9.40;99.90
6260;DHT22;3163;51.516;4.000;2022-12-26T20:34:54;9.40;99.90
6260;DHT22;3163;51.516;4.000;2022-12-26T20:37:20;9.40;99.90
6260;DHT22;3163;51.516;4.000;2022-12-26T20:39:46;9.40;99.90